sensor_id;sensor_type;location;lat;lon;timestamp;temperature;humidity
48264;DHT22;34086;51.076;13.722;2022-07-25T00:00:44;20.70;75.50
48264;DHT22;34086;51.076;13.722;2022-07-25T00:01:45;20.60;75.20
48264;DHT22;34086;51.076;13.722;2022-07-25T00:02:46;20.60;74.90
48264;DHT22;34086;51.076;13.722;2022-07-25T00:03:46;20.60;75.50
48264;DHT22;34086;51.076;13.722;2022-07-25T00:04:47;20.60;74.60
48264;DHT22;34086;51.076;13.722;2022-07-25T00:05:48;20.60;74.70
48264;DHT22;34086;51.076;13.722;2022-07-25T00:06:49;20.60;74.80
48264;DHT22;34086;51.076;13.722;2022-07-25T00:07:49;20.60;74.80
48264;DHT22;34086;51.076;13.722;2022-07-25T00:08:50;20.60;74.70
48264;DHT22;34086;51.076;13.722;2022-07-25T00:09:51;20.60;74.70
48264;DHT22;34086;51.076;13.722;2022-07-25T00:10:51;20.50;74.70
48264;DHT22;34086;51.076;13.722;2022-07-25T00:11:52;20.50;74.70
48264;DHT22;34086;51.076;13.722;2022-07-25T00:12:53;20.50;74.80
48264;DHT22;34086;51.076;13.722;2022-07-25T00:13:53;20.50;74.90
48264;DHT22;34086;51.076;13.722;2022-07-25T00:14:54;20.50;75.30
48264;DHT22;34086;51.076;13.722;2022-07-25T00:15:54;20.50;75.30
48264;DHT22;34086;51.076;13.722;2022-07-25T00:16:55;20.50;75.40
48264;DHT22;34086;51.076;13.722;2022-07-25T00:17:56;20.50;75.50
48264;DHT22;34086;51.076;13.722;2022-07-25T00:18:56;20.50;75.60
48264;DHT22;34086;51.076;13.722;2022-07-25T00:19:57;20.50;75.80
48264;DHT22;34086;51.076;13.722;2022-07-25T00:20:58;20.40;76.10
48264;DHT22;34086;51.076;13.722;2022-07-25T00:21:58;20.40;76.40
48264;DHT22;34086;51.076;13.722;2022-07-25T00:22:59;20.40;76.70
48264;DHT22;34086;51.076;13.722;2022-07-25T00:24:00;20.40;77.10
48264;DHT22;34086;51.076;13.722;2022-07-25T00:25:03;20.40;77.30
48264;DHT22;34086;51.076;13.722;2022-07-25T00:26:07;20.30;77.50
48264;DHT22;34086;51.076;13.722;2022-07-25T00:27:08;20.30;77.70
48264;DHT22;34086;51.076;13.722;2022-07-25T00:28:12;20.30;77.80
48264;DHT22;34086;51.076;13.722;2022-07-25T00:29:13;20.30;78.00
48264;DHT22;34086;51.076;13.722;2022-07-25T00:30:14;20.30;78.20
48264;DHT22;34086;51.076;13.722;2022-07-25T00:31:14;20.30;78.40
48264;DHT22;34086;51.076;13.722;2022-07-25T00:32:15;20.30;78.60
48264;DHT22;34086;51.076;13.722;2022-07-25T00:33:16;20.30;78.60
48264;DHT22;34086;51.076;13.722;2022-07-25T00:34:17;20.30;78.80
48264;DHT22;34086;51.076;13.722;2022-07-25T00:35:18;20.30;78.90
48264;DHT22;34086;51.076;13.722;2022-07-25T00:36:19;20.30;79.00
48264;DHT22;34086;51.076;13.722;2022-07-25T00:37:19;20.20;79.00
48264;DHT22;34086;51.076;13.722;2022-07-25T00:38:20;20.20;79.10
48264;DHT22;34086;51.076;13.722;2022-07-25T00:39:21;20.20;79.20
48264;DHT22;34086;51.076;13.722;2022-07-25T00:40:22;20.20;79.20
48264;DHT22;34086;51.076;13.722;2022-07-25T00:41:23;20.20;79.20
48264;DHT22;34086;51.076;13.722;2022-07-25T00:42:23;20.20;79.10
48264;DHT22;34086;51.076;13.722;2022-07-25T00:43:24;20.20;79.10
48264;DHT22;34086;51.076;13.722;2022-07-25T00:44:28;20.20;79.20
48264;DHT22;34086;51.076;13.722;2022-07-25T00:45:29;20.20;79.00
48264;DHT22;34086;51.076;13.722;2022-07-25T00:46:30;20.10;78.80
48264;DHT22;34086;51.076;13.722;2022-07-25T00:47:31;20.10;78.70
48264;DHT22;34086;51.076;13.722;2022-07-25T00:48:32;20.10;78.70
48264;DHT22;34086;51.076;13.722;2022-07-25T00:49:33;20.10;78.40
48264;DHT22;34086;51.076;13.722;2022-07-25T00:50:35;20.10;78.40
48264;DHT22;34086;51.076;13.722;2022-07-25T00:51:36;20.10;78.40
48264;DHT22;34086;51.076;13.722;2022-07-25T00:52:39;20.10;78.40
48264;DHT22;34086;51.076;13.722;2022-07-25T00:53:44;20.10;78.50
48264;DHT22;34086;51.076;13.722;2022-07-25T00:54:45;20.00;78.50
48264;DHT22;34086;51.076;13.722;2022-07-25T00:55:46;20.00;78.40
48264;DHT22;34086;51.076;13.722;2022-07-25T00:56:48;20.00;78.40
48264;DHT22;34086;51.076;13.722;2022-07-25T00:57:50;20.00;78.30
48264;DHT22;34086;51.076;13.722;2022-07-25T00:58:51;20.00;78.30
48264;DHT22;34086;51.076;13.722;2022-07-25T00:59:51;20.00;78.20
48264;DHT22;34086;51.076;13.722;2022-07-25T01:00:52;20.00;78.20
48264;DHT22;34086;51.076;13.722;2022-07-25T01:01:53;20.00;78.20
48264;DHT22;34086;51.076;13.722;2022-07-25T01:02:54;20.00;78.30
48264;DHT22;34086;51.076;13.722;2022-07-25T01:03:55;19.90;78.30
48264;DHT22;34086;51.076;13.722;2022-07-25T01:04:55;19.90;78.40
48264;DHT22;34086;51.076;13.722;2022-07-25T01:05:58;19.90;78.40
48264;DHT22;34086;51.076;13.722;2022-07-25T01:06:59;19.90;78.70
48264;DHT22;34086;51.076;13.722;2022-07-25T01:08:01;19.90;78.80
48264;DHT22;34086;51.076;13.722;2022-07-25T01:09:02;19.90;79.60
48264;DHT22;34086;51.076;13.722;2022-07-25T01:10:05;19.90;78.80
48264;DHT22;34086;51.076;13.722;2022-07-25T01:11:06;19.80;78.90
48264;DHT22;34086;51.076;13.722;2022-07-25T01:12:07;19.90;79.00
48264;DHT22;34086;51.076;13.722;2022-07-25T01:13:12;19.80;78.90
48264;DHT22;34086;51.076;13.722;2022-07-25T01:14:13;19.80;79.00
48264;DHT22;34086;51.076;13.722;2022-07-25T01:15:15;19.80;79.10
48264;DHT22;34086;51.076;13.722;2022-07-25T01:16:16;19.80;79.10
48264;DHT22;34086;51.076;13.722;2022-07-25T01:17:17;19.80;79.20
48264;DHT22;34086;51.076;13.722;2022-07-25T01:18:18;19.80;79.20
48264;DHT22;34086;51.076;13.722;2022-07-25T01:19:18;19.80;79.40
48264;DHT22;34086;51.076;13.722;2022-07-25T01:20:21;19.80;79.40
48264;DHT22;34086;51.076;13.722;2022-07-25T01:21:23;19.70;79.40
48264;DHT22;34086;51.076;13.722;2022-07-25T01:22:23;19.70;79.40
48264;DHT22;34086;51.076;13.722;2022-07-25T01:23:24;19.70;79.40
48264;DHT22;34086;51.076;13.722;2022-07-25T01:24:25;19.70;79.40
48264;DHT22;34086;51.076;13.722;2022-07-25T01:25:26;19.70;79.50
48264;DHT22;34086;51.076;13.722;2022-07-25T01:26:27;19.70;79.70
48264;DHT22;34086;51.076;13.722;2022-07-25T01:27:28;19.70;79.80
48264;DHT22;34086;51.076;13.722;2022-07-25T01:28:28;19.70;79.80
48264;DHT22;34086;51.076;13.722;2022-07-25T01:29:29;19.70;79.80
48264;DHT22;34086;51.076;13.722;2022-07-25T01:30:30;19.70;79.90
48264;DHT22;34086;51.076;13.722;2022-07-25T01:31:30;19.60;79.90
48264;DHT22;34086;51.076;13.722;2022-07-25T01:32:31;19.70;80.10
48264;DHT22;34086;51.076;13.722;2022-07-25T01:33:32;19.70;80.00
48264;DHT22;34086;51.076;13.722;2022-07-25T01:34:32;19.60;80.00
48264;DHT22;34086;51.076;13.722;2022-07-25T01:35:33;19.60;80.20
48264;DHT22;34086;51.076;13.722;2022-07-25T01:36:34;19.60;80.30
48264;DHT22;34086;51.076;13.722;2022-07-25T01:37:35;19.60;80.40
48264;DHT22;34086;51.076;13.722;2022-07-25T01:38:36;19.60;80.60
48264;DHT22;34086;51.076;13.722;2022-07-25T01:39:36;19.60;80.60
48264;DHT22;34086;51.076;13.722;2022-07-25T01:40:37;19.50;80.70
48264;DHT22;34086;51.076;13.722;2022-07-25T01:41:38;19.50;81.50
48264;DHT22;34086;51.076;13.722;2022-07-25T01:42:38;19.50;80.80
48264;DHT22;34086;51.076;13.722;2022-07-25T01:43:39;19.50;81.00
48264;DHT22;34086;51.076;13.722;2022-07-25T01:44:40;19.50;81.10
48264;DHT22;34086;51.076;13.722;2022-07-25T01:45:41;19.50;81.20
48264;DHT22;34086;51.076;13.722;2022-07-25T01:46:41;19.50;81.20
48264;DHT22;34086;51.076;13.722;2022-07-25T01:47:42;19.50;81.30
48264;DHT22;34086;51.076;13.722;2022-07-25T01:48:43;19.50;81.40
48264;DHT22;34086;51.076;13.722;2022-07-25T01:49:43;19.50;81.50
48264;DHT22;34086;51.076;13.722;2022-07-25T01:50:44;19.50;81.50
48264;DHT22;34086;51.076;13.722;2022-07-25T01:51:44;19.50;81.60
48264;DHT22;34086;51.076;13.722;2022-07-25T01:52:45;19.40;81.50
48264;DHT22;34086;51.076;13.722;2022-07-25T01:53:46;19.50;81.60
48264;DHT22;34086;51.076;13.722;2022-07-25T01:54:47;19.40;81.40
48264;DHT22;34086;51.076;13.722;2022-07-25T01:55:48;19.40;81.40
48264;DHT22;34086;51.076;13.722;2022-07-25T01:56:48;19.40;81.40
48264;DHT22;34086;51.076;13.722;2022-07-25T01:57:49;19.50;81.50
48264;DHT22;34086;51.076;13.722;2022-07-25T01:58:50;19.40;81.50
48264;DHT22;34086;51.076;13.722;2022-07-25T01:59:50;19.40;81.50
48264;DHT22;34086;51.076;13.722;2022-07-25T02:00:51;19.40;81.70
48264;DHT22;34086;51.076;13.722;2022-07-25T02:01:52;19.40;81.80
48264;DHT22;34086;51.076;13.722;2022-07-25T02:02:53;19.40;82.00
48264;DHT22;34086;51.076;13.722;2022-07-25T02:04:14;19.40;82.10
48264;DHT22;34086;51.076;13.722;2022-07-25T02:05:14;19.30;82.20
48264;DHT22;34086;51.076;13.722;2022-07-25T02:06:17;19.30;82.30
48264;DHT22;34086;51.076;13.722;2022-07-25T02:07:18;19.30;82.50
48264;DHT22;34086;51.076;13.722;2022-07-25T02:08:18;19.30;82.50
48264;DHT22;34086;51.076;13.722;2022-07-25T02:09:19;19.30;82.60
48264;DHT22;34086;51.076;13.722;2022-07-25T02:10:20;19.30;82.70
48264;DHT22;34086;51.076;13.722;2022-07-25T02:11:20;19.30;82.90
48264;DHT22;34086;51.076;13.722;2022-07-25T02:12:21;19.30;83.00
48264;DHT22;34086;51.076;13.722;2022-07-25T02:13:22;19.30;83.00
48264;DHT22;34086;51.076;13.722;2022-07-25T02:14:23;19.30;83.10
48264;DHT22;34086;51.076;13.722;2022-07-25T02:15:23;19.30;83.20
48264;DHT22;34086;51.076;13.722;2022-07-25T02:16:24;19.30;83.20
48264;DHT22;34086;51.076;13.722;2022-07-25T02:17:26;19.30;83.40
48264;DHT22;34086;51.076;13.722;2022-07-25T02:18:26;19.30;83.50
48264;DHT22;34086;51.076;13.722;2022-07-25T02:19:27;19.30;83.30
48264;DHT22;34086;51.076;13.722;2022-07-25T02:20:28;19.30;83.30
48264;DHT22;34086;51.076;13.722;2022-07-25T02:21:28;19.30;83.30
48264;DHT22;34086;51.076;13.722;2022-07-25T02:22:29;19.30;83.30
48264;DHT22;34086;51.076;13.722;2022-07-25T02:23:29;19.20;83.30
48264;DHT22;34086;51.076;13.722;2022-07-25T02:24:30;19.20;83.30
48264;DHT22;34086;51.076;13.722;2022-07-25T02:25:32;19.20;83.30
48264;DHT22;34086;51.076;13.722;2022-07-25T02:26:33;19.20;83.40
48264;DHT22;34086;51.076;13.722;2022-07-25T02:27:34;19.20;83.40
48264;DHT22;34086;51.076;13.722;2022-07-25T02:28:34;19.20;83.50
48264;DHT22;34086;51.076;13.722;2022-07-25T02:29:35;19.20;83.50
48264;DHT22;34086;51.076;13.722;2022-07-25T02:30:36;19.20;83.50
48264;DHT22;34086;51.076;13.722;2022-07-25T02:31:37;19.10;83.60
48264;DHT22;34086;51.076;13.722;2022-07-25T02:32:38;19.10;83.70
48264;DHT22;34086;51.076;13.722;2022-07-25T02:33:41;19.10;83.90
48264;DHT22;34086;51.076;13.722;2022-07-25T02:34:42;19.10;83.90
48264;DHT22;34086;51.076;13.722;2022-07-25T02:35:43;19.10;83.90
48264;DHT22;34086;51.076;13.722;2022-07-25T02:36:43;19.10;84.10
48264;DHT22;34086;51.076;13.722;2022-07-25T02:37:45;19.00;84.20
48264;DHT22;34086;51.076;13.722;2022-07-25T02:38:46;19.10;84.30
48264;DHT22;34086;51.076;13.722;2022-07-25T02:39:47;19.10;84.40
48264;DHT22;34086;51.076;13.722;2022-07-25T02:40:49;19.10;84.50
48264;DHT22;34086;51.076;13.722;2022-07-25T02:41:50;19.00;84.50
48264;DHT22;34086;51.076;13.722;2022-07-25T02:42:50;19.00;84.60
48264;DHT22;34086;51.076;13.722;2022-07-25T02:43:51;19.10;84.70
48264;DHT22;34086;51.076;13.722;2022-07-25T02:44:52;19.00;84.80
48264;DHT22;34086;51.076;13.722;2022-07-25T02:45:52;19.00;84.90
48264;DHT22;34086;51.076;13.722;2022-07-25T02:46:53;19.00;84.80
48264;DHT22;34086;51.076;13.722;2022-07-25T02:47:54;19.00;84.90
48264;DHT22;34086;51.076;13.722;2022-07-25T02:48:54;19.00;85.00
48264;DHT22;34086;51.076;13.722;2022-07-25T02:49:55;19.00;85.00
48264;DHT22;34086;51.076;13.722;2022-07-25T02:50:56;19.00;85.00
48264;DHT22;34086;51.076;13.722;2022-07-25T02:51:56;19.00;85.20
48264;DHT22;34086;51.076;13.722;2022-07-25T02:52:57;19.00;85.30
48264;DHT22;34086;51.076;13.722;2022-07-25T02:53:58;19.00;85.50
48264;DHT22;34086;51.076;13.722;2022-07-25T02:54:58;19.00;85.90
48264;DHT22;34086;51.076;13.722;2022-07-25T02:55:59;18.90;85.40
48264;DHT22;34086;51.076;13.722;2022-07-25T02:56:59;18.90;85.60
48264;DHT22;34086;51.076;13.722;2022-07-25T02:58:00;18.90;85.70
48264;DHT22;34086;51.076;13.722;2022-07-25T02:59:01;18.90;85.70
48264;DHT22;34086;51.076;13.722;2022-07-25T03:00:03;18.90;85.60
48264;DHT22;34086;51.076;13.722;2022-07-25T03:01:04;18.90;85.70
48264;DHT22;34086;51.076;13.722;2022-07-25T03:02:05;18.90;85.70
48264;DHT22;34086;51.076;13.722;2022-07-25T03:03:05;18.90;85.90
48264;DHT22;34086;51.076;13.722;2022-07-25T03:04:06;18.90;86.00
48264;DHT22;34086;51.076;13.722;2022-07-25T03:05:12;18.80;86.10
48264;DHT22;34086;51.076;13.722;2022-07-25T03:06:13;18.80;86.20
48264;DHT22;34086;51.076;13.722;2022-07-25T03:07:14;18.80;86.30
48264;DHT22;34086;51.076;13.722;2022-07-25T03:08:15;18.80;86.40
48264;DHT22;34086;51.076;13.722;2022-07-25T03:09:15;18.80;86.50
48264;DHT22;34086;51.076;13.722;2022-07-25T03:10:16;18.80;86.70
48264;DHT22;34086;51.076;13.722;2022-07-25T03:11:17;18.80;86.70
48264;DHT22;34086;51.076;13.722;2022-07-25T03:12:17;18.80;86.70
48264;DHT22;34086;51.076;13.722;2022-07-25T03:13:18;18.80;86.70
48264;DHT22;34086;51.076;13.722;2022-07-25T03:14:19;18.80;86.80
48264;DHT22;34086;51.076;13.722;2022-07-25T03:15:20;18.80;87.00
48264;DHT22;34086;51.076;13.722;2022-07-25T03:16:20;18.80;87.10
48264;DHT22;34086;51.076;13.722;2022-07-25T03:17:21;18.80;87.10
48264;DHT22;34086;51.076;13.722;2022-07-25T03:18:22;18.70;87.10
48264;DHT22;34086;51.076;13.722;2022-07-25T03:19:22;18.70;87.20
48264;DHT22;34086;51.076;13.722;2022-07-25T03:20:23;18.80;87.50
48264;DHT22;34086;51.076;13.722;2022-07-25T03:21:24;18.80;87.50
48264;DHT22;34086;51.076;13.722;2022-07-25T03:22:25;18.80;87.60
48264;DHT22;34086;51.076;13.722;2022-07-25T03:23:25;18.80;87.70
48264;DHT22;34086;51.076;13.722;2022-07-25T03:24:27;18.70;87.80
48264;DHT22;34086;51.076;13.722;2022-07-25T03:25:28;18.70;88.00
48264;DHT22;34086;51.076;13.722;2022-07-25T03:26:29;18.70;88.10
48264;DHT22;34086;51.076;13.722;2022-07-25T03:27:30;18.80;88.30
48264;DHT22;34086;51.076;13.722;2022-07-25T03:28:31;18.70;88.20
48264;DHT22;34086;51.076;13.722;2022-07-25T03:29:31;18.70;88.40
48264;DHT22;34086;51.076;13.722;2022-07-25T03:30:32;18.70;88.50
48264;DHT22;34086;51.076;13.722;2022-07-25T03:31:33;18.80;88.60
48264;DHT22;34086;51.076;13.722;2022-07-25T03:32:33;18.70;88.60
48264;DHT22;34086;51.076;13.722;2022-07-25T03:33:34;18.70;88.60
48264;DHT22;34086;51.076;13.722;2022-07-25T03:34:35;18.80;88.70
48264;DHT22;34086;51.076;13.722;2022-07-25T03:35:36;18.80;88.70
48264;DHT22;34086;51.076;13.722;2022-07-25T03:36:37;18.80;88.80
48264;DHT22;34086;51.076;13.722;2022-07-25T03:37:38;18.80;88.80
48264;DHT22;34086;51.076;13.722;2022-07-25T03:38:38;18.80;88.70
48264;DHT22;34086;51.076;13.722;2022-07-25T03:39:39;18.80;88.80
48264;DHT22;34086;51.076;13.722;2022-07-25T03:40:40;18.80;88.80
48264;DHT22;34086;51.076;13.722;2022-07-25T03:41:40;18.80;88.70
48264;DHT22;34086;51.076;13.722;2022-07-25T03:42:41;18.90;88.80
48264;DHT22;34086;51.076;13.722;2022-07-25T03:43:42;18.90;88.90
48264;DHT22;34086;51.076;13.722;2022-07-25T03:44:42;18.90;88.90
48264;DHT22;34086;51.076;13.722;2022-07-25T03:45:43;18.90;88.90
48264;DHT22;34086;51.076;13.722;2022-07-25T03:46:44;18.90;88.90
48264;DHT22;34086;51.076;13.722;2022-07-25T03:47:44;18.90;88.90
48264;DHT22;34086;51.076;13.722;2022-07-25T03:48:45;18.90;89.10
48264;DHT22;34086;51.076;13.722;2022-07-25T03:49:46;18.90;88.90
48264;DHT22;34086;51.076;13.722;2022-07-25T03:50:46;19.00;89.00
48264;DHT22;34086;51.076;13.722;2022-07-25T03:51:47;19.00;88.90
48264;DHT22;34086;51.076;13.722;2022-07-25T03:52:47;19.00;89.00
48264;DHT22;34086;51.076;13.722;2022-07-25T03:53:48;19.00;89.10
48264;DHT22;34086;51.076;13.722;2022-07-25T03:55:01;19.00;89.20
48264;DHT22;34086;51.076;13.722;2022-07-25T03:56:02;19.00;89.10
48264;DHT22;34086;51.076;13.722;2022-07-25T03:57:02;19.00;89.10
48264;DHT22;34086;51.076;13.722;2022-07-25T03:58:04;19.00;89.20
48264;DHT22;34086;51.076;13.722;2022-07-25T03:59:07;19.10;89.20
48264;DHT22;34086;51.076;13.722;2022-07-25T04:00:09;19.10;89.10
48264;DHT22;34086;51.076;13.722;2022-07-25T04:01:09;19.10;89.10
48264;DHT22;34086;51.076;13.722;2022-07-25T04:02:10;19.10;89.10
48264;DHT22;34086;51.076;13.722;2022-07-25T04:03:11;19.10;89.20
48264;DHT22;34086;51.076;13.722;2022-07-25T04:04:12;19.10;89.30
48264;DHT22;34086;51.076;13.722;2022-07-25T04:05:12;19.20;89.30
48264;DHT22;34086;51.076;13.722;2022-07-25T04:06:13;19.20;89.30
48264;DHT22;34086;51.076;13.722;2022-07-25T04:07:14;19.20;89.30
48264;DHT22;34086;51.076;13.722;2022-07-25T04:08:14;19.20;89.40
48264;DHT22;34086;51.076;13.722;2022-07-25T04:09:15;19.20;89.40
48264;DHT22;34086;51.076;13.722;2022-07-25T04:10:16;19.30;89.40
48264;DHT22;34086;51.076;13.722;2022-07-25T04:11:17;19.30;89.30
48264;DHT22;34086;51.076;13.722;2022-07-25T04:12:17;19.30;89.30
48264;DHT22;34086;51.076;13.722;2022-07-25T04:13:18;19.30;89.30
48264;DHT22;34086;51.076;13.722;2022-07-25T04:14:19;19.30;89.30
48264;DHT22;34086;51.076;13.722;2022-07-25T04:15:19;19.30;89.40
48264;DHT22;34086;51.076;13.722;2022-07-25T04:16:20;19.30;89.40
48264;DHT22;34086;51.076;13.722;2022-07-25T04:17:21;19.40;89.20
48264;DHT22;34086;51.076;13.722;2022-07-25T04:18:21;19.50;89.10
48264;DHT22;34086;51.076;13.722;2022-07-25T04:19:22;19.60;89.00
48264;DHT22;34086;51.076;13.722;2022-07-25T04:20:23;19.70;88.60
48264;DHT22;34086;51.076;13.722;2022-07-25T04:21:24;19.80;88.10
48264;DHT22;34086;51.076;13.722;2022-07-25T04:22:24;20.10;87.60
48264;DHT22;34086;51.076;13.722;2022-07-25T04:23:26;20.30;86.90
48264;DHT22;34086;51.076;13.722;2022-07-25T04:24:28;20.60;85.90
48264;DHT22;34086;51.076;13.722;2022-07-25T04:25:28;21.00;84.60
48264;DHT22;34086;51.076;13.722;2022-07-25T04:26:30;21.30;83.30
48264;DHT22;34086;51.076;13.722;2022-07-25T04:27:30;21.50;82.10
48264;DHT22;34086;51.076;13.722;2022-07-25T04:28:31;21.70;81.00
48264;DHT22;34086;51.076;13.722;2022-07-25T04:29:32;21.80;80.50
48264;DHT22;34086;51.076;13.722;2022-07-25T04:30:32;21.90;80.10
48264;DHT22;34086;51.076;13.722;2022-07-25T04:31:33;22.10;79.60
48264;DHT22;34086;51.076;13.722;2022-07-25T04:32:34;22.20;79.10
48264;DHT22;34086;51.076;13.722;2022-07-25T04:33:39;22.40;78.40
48264;DHT22;34086;51.076;13.722;2022-07-25T04:34:39;22.70;77.70
48264;DHT22;34086;51.076;13.722;2022-07-25T04:35:40;22.90;76.80
48264;DHT22;34086;51.076;13.722;2022-07-25T04:36:41;23.10;76.00
48264;DHT22;34086;51.076;13.722;2022-07-25T04:37:41;23.40;75.00
48264;DHT22;34086;51.076;13.722;2022-07-25T04:38:42;23.60;73.90
48264;DHT22;34086;51.076;13.722;2022-07-25T04:39:43;23.90;73.30
48264;DHT22;34086;51.076;13.722;2022-07-25T04:40:44;24.20;72.40
48264;DHT22;34086;51.076;13.722;2022-07-25T04:41:44;24.40;71.30
48264;DHT22;34086;51.076;13.722;2022-07-25T04:42:45;24.60;70.30
48264;DHT22;34086;51.076;13.722;2022-07-25T04:43:45;24.70;69.60
48264;DHT22;34086;51.076;13.722;2022-07-25T04:44:46;24.80;68.90
48264;DHT22;34086;51.076;13.722;2022-07-25T04:45:47;24.80;68.70
48264;DHT22;34086;51.076;13.722;2022-07-25T04:46:48;24.90;68.60
48264;DHT22;34086;51.076;13.722;2022-07-25T04:47:48;24.80;68.20
48264;DHT22;34086;51.076;13.722;2022-07-25T04:48:50;24.90;68.30
48264;DHT22;34086;51.076;13.722;2022-07-25T04:49:51;24.90;68.00
48264;DHT22;34086;51.076;13.722;2022-07-25T04:50:51;25.10;67.70
48264;DHT22;34086;51.076;13.722;2022-07-25T04:51:52;25.30;67.30
48264;DHT22;34086;51.076;13.722;2022-07-25T04:52:53;25.40;66.70
48264;DHT22;34086;51.076;13.722;2022-07-25T04:53:53;25.60;66.10
48264;DHT22;34086;51.076;13.722;2022-07-25T04:54:54;25.70;65.50
48264;DHT22;34086;51.076;13.722;2022-07-25T04:55:55;25.90;64.80
48264;DHT22;34086;51.076;13.722;2022-07-25T04:56:55;26.00;64.20
48264;DHT22;34086;51.076;13.722;2022-07-25T04:57:56;26.10;63.90
48264;DHT22;34086;51.076;13.722;2022-07-25T04:58:57;26.30;63.70
48264;DHT22;34086;51.076;13.722;2022-07-25T04:59:58;26.30;63.10
48264;DHT22;34086;51.076;13.722;2022-07-25T05:00:58;26.30;62.90
48264;DHT22;34086;51.076;13.722;2022-07-25T05:02:00;26.40;62.60
48264;DHT22;34086;51.076;13.722;2022-07-25T05:03:01;26.40;62.40
48264;DHT22;34086;51.076;13.722;2022-07-25T05:04:01;26.40;62.20
48264;DHT22;34086;51.076;13.722;2022-07-25T05:05:03;26.40;62.10
48264;DHT22;34086;51.076;13.722;2022-07-25T05:06:04;26.40;61.90
48264;DHT22;34086;51.076;13.722;2022-07-25T05:07:05;26.30;61.80
48264;DHT22;34086;51.076;13.722;2022-07-25T05:08:05;26.30;62.60
48264;DHT22;34086;51.076;13.722;2022-07-25T05:09:06;26.20;61.80
48264;DHT22;34086;51.076;13.722;2022-07-25T05:10:07;26.10;62.10
48264;DHT22;34086;51.076;13.722;2022-07-25T05:11:08;26.00;62.20
48264;DHT22;34086;51.076;13.722;2022-07-25T05:12:09;26.00;62.50
48264;DHT22;34086;51.076;13.722;2022-07-25T05:13:10;26.00;62.50
48264;DHT22;34086;51.076;13.722;2022-07-25T05:14:10;26.00;62.50
48264;DHT22;34086;51.076;13.722;2022-07-25T05:15:11;26.20;62.60
48264;DHT22;34086;51.076;13.722;2022-07-25T05:16:12;26.30;62.50
48264;DHT22;34086;51.076;13.722;2022-07-25T05:17:12;26.40;62.10
48264;DHT22;34086;51.076;13.722;2022-07-25T05:18:13;26.60;61.70
48264;DHT22;34086;51.076;13.722;2022-07-25T05:19:14;26.80;61.50
48264;DHT22;34086;51.076;13.722;2022-07-25T05:20:14;26.90;60.80
48264;DHT22;34086;51.076;13.722;2022-07-25T05:21:15;27.10;60.40
48264;DHT22;34086;51.076;13.722;2022-07-25T05:22:16;27.30;59.90
48264;DHT22;34086;51.076;13.722;2022-07-25T05:23:16;27.50;59.50
48264;DHT22;34086;51.076;13.722;2022-07-25T05:24:17;27.60;59.10
48264;DHT22;34086;51.076;13.722;2022-07-25T05:25:18;27.70;58.80
48264;DHT22;34086;51.076;13.722;2022-07-25T05:26:19;27.90;58.40
48264;DHT22;34086;51.076;13.722;2022-07-25T05:27:20;28.00;58.10
48264;DHT22;34086;51.076;13.722;2022-07-25T05:28:21;28.00;57.80
48264;DHT22;34086;51.076;13.722;2022-07-25T05:29:21;28.10;57.60
48264;DHT22;34086;51.076;13.722;2022-07-25T05:30:22;28.20;57.20
48264;DHT22;34086;51.076;13.722;2022-07-25T05:31:23;28.20;57.10
48264;DHT22;34086;51.076;13.722;2022-07-25T05:32:23;28.10;57.20
48264;DHT22;34086;51.076;13.722;2022-07-25T05:33:24;28.00;57.30
48264;DHT22;34086;51.076;13.722;2022-07-25T05:34:26;28.00;57.40
48264;DHT22;34086;51.076;13.722;2022-07-25T05:35:26;28.00;57.40
48264;DHT22;34086;51.076;13.722;2022-07-25T05:36:27;28.00;57.40
48264;DHT22;34086;51.076;13.722;2022-07-25T05:37:28;28.10;58.00
48264;DHT22;34086;51.076;13.722;2022-07-25T05:38:28;28.00;57.10
48264;DHT22;34086;51.076;13.722;2022-07-25T05:39:29;28.00;57.40
48264;DHT22;34086;51.076;13.722;2022-07-25T05:40:30;28.00;57.20
48264;DHT22;34086;51.076;13.722;2022-07-25T05:41:30;28.10;57.20
48264;DHT22;34086;51.076;13.722;2022-07-25T05:42:31;28.20;57.20
48264;DHT22;34086;51.076;13.722;2022-07-25T05:43:32;28.20;57.20
48264;DHT22;34086;51.076;13.722;2022-07-25T05:44:33;28.30;56.80
48264;DHT22;34086;51.076;13.722;2022-07-25T05:45:33;28.40;56.60
48264;DHT22;34086;51.076;13.722;2022-07-25T05:46:34;28.50;56.60
48264;DHT22;34086;51.076;13.722;2022-07-25T05:47:35;28.40;56.60
48264;DHT22;34086;51.076;13.722;2022-07-25T05:48:36;28.60;56.60
48264;DHT22;34086;51.076;13.722;2022-07-25T05:49:37;28.60;56.20
48264;DHT22;34086;51.076;13.722;2022-07-25T05:50:38;28.70;55.90
48264;DHT22;34086;51.076;13.722;2022-07-25T05:51:39;28.70;55.60
48264;DHT22;34086;51.076;13.722;2022-07-25T05:52:39;28.80;55.40
48264;DHT22;34086;51.076;13.722;2022-07-25T05:53:40;28.80;55.50
48264;DHT22;34086;51.076;13.722;2022-07-25T05:54:41;29.00;55.40
48264;DHT22;34086;51.076;13.722;2022-07-25T05:55:42;29.20;55.10
48264;DHT22;34086;51.076;13.722;2022-07-25T05:56:43;29.20;54.70
48264;DHT22;34086;51.076;13.722;2022-07-25T05:57:44;29.20;54.40
48264;DHT22;34086;51.076;13.722;2022-07-25T05:58:44;29.20;54.50
48264;DHT22;34086;51.076;13.722;2022-07-25T05:59:45;29.10;54.50
48264;DHT22;34086;51.076;13.722;2022-07-25T06:00:46;29.00;54.70
48264;DHT22;34086;51.076;13.722;2022-07-25T06:01:46;29.10;54.50
48264;DHT22;34086;51.076;13.722;2022-07-25T06:02:47;29.20;54.10
48264;DHT22;34086;51.076;13.722;2022-07-25T06:03:48;29.20;53.90
48264;DHT22;34086;51.076;13.722;2022-07-25T06:04:48;29.10;54.00
48264;DHT22;34086;51.076;13.722;2022-07-25T06:05:49;29.20;54.00
48264;DHT22;34086;51.076;13.722;2022-07-25T06:06:53;29.20;54.20
48264;DHT22;34086;51.076;13.722;2022-07-25T06:07:53;29.40;54.00
48264;DHT22;34086;51.076;13.722;2022-07-25T06:08:54;29.50;53.60
48264;DHT22;34086;51.076;13.722;2022-07-25T06:09:55;29.70;53.20
48264;DHT22;34086;51.076;13.722;2022-07-25T06:10:56;29.70;52.80
48264;DHT22;34086;51.076;13.722;2022-07-25T06:11:57;29.60;53.20
48264;DHT22;34086;51.076;13.722;2022-07-25T06:12:58;29.70;53.20
48264;DHT22;34086;51.076;13.722;2022-07-25T06:13:59;29.70;52.80
48264;DHT22;34086;51.076;13.722;2022-07-25T06:15:00;29.60;53.60
48264;DHT22;34086;51.076;13.722;2022-07-25T06:16:01;29.60;53.00
48264;DHT22;34086;51.076;13.722;2022-07-25T06:17:01;29.70;53.00
48264;DHT22;34086;51.076;13.722;2022-07-25T06:18:02;29.60;53.30
48264;DHT22;34086;51.076;13.722;2022-07-25T06:19:03;29.70;53.30